createdAt,value
2017-12-23T00:02:07.900Z,11.48
2017-12-23T00:04:36.038Z,13.27
2017-12-23T00:07:04.209Z,10.27
2017-12-23T00:09:33.087Z,11.60
2017-12-23T00:12:01.199Z,12.25
2017-12-23T00:14:30.119Z,10.68
2017-12-23T00:16:58.318Z,11.77
2017-12-23T00:19:26.483Z,13.38
2017-12-23T00:21:55.503Z,12.32
2017-12-23T00:24:23.648Z,14.13
2017-12-23T00:26:51.826Z,11.15
2017-12-23T00:29:21.291Z,11.45
2017-12-23T00:31:49.402Z,12.25
2017-12-23T00:34:29.483Z,13.55
2017-12-23T00:36:57.598Z,11.12
2017-12-23T00:39:26.523Z,11.95
2017-12-23T00:41:54.696Z,10.88
2017-12-23T00:44:22.872Z,12.00
2017-12-23T00:46:51.049Z,12.15
2017-12-23T00:49:19.139Z,11.55
2017-12-23T00:51:48.121Z,13.88
2017-12-23T00:54:17.012Z,14.30
2017-12-23T00:56:45.179Z,14.35
2017-12-23T00:59:13.283Z,11.85
2017-12-23T01:01:41.420Z,12.93
2017-12-23T01:04:09.562Z,13.32
2017-12-23T01:06:39.160Z,12.70
2017-12-23T01:09:08.059Z,12.13
2017-12-23T01:11:36.983Z,12.82
2017-12-23T01:14:05.874Z,12.10
2017-12-23T01:16:34.050Z,11.60
2017-12-23T01:19:02.928Z,12.43
2017-12-23T01:21:31.118Z,11.88
2017-12-23T01:23:59.225Z,9.60
2017-12-23T01:26:27.361Z,11.40
2017-12-23T01:28:55.479Z,11.98
2017-12-23T01:31:23.707Z,12.60
2017-12-23T01:33:52.616Z,15.63
2017-12-23T01:36:20.725Z,12.05
2017-12-23T01:38:48.855Z,12.50
2017-12-23T01:41:17.021Z,13.33
2017-12-23T01:43:45.118Z,11.93
2017-12-23T01:46:13.251Z,12.45
2017-12-23T01:48:41.391Z,12.60
2017-12-23T01:51:09.610Z,12.95
2017-12-23T01:53:37.711Z,11.75
2017-12-23T01:56:05.959Z,11.60
2017-12-23T01:58:34.128Z,11.63
2017-12-23T02:01:03.023Z,14.43
2017-12-23T02:03:31.167Z,14.13
2017-12-23T02:06:00.058Z,13.02
2017-12-23T02:08:28.973Z,13.70
2017-12-23T02:10:57.851Z,12.03
2017-12-23T02:13:26.005Z,12.77
2017-12-23T02:15:54.924Z,17.92
2017-12-23T02:18:23.818Z,13.80
2017-12-23T02:20:51.991Z,14.18
2017-12-23T02:23:20.878Z,14.85
2017-12-23T02:25:49.000Z,12.83
2017-12-23T02:28:17.225Z,15.93
2017-12-23T02:30:46.125Z,14.13
2017-12-23T02:33:14.290Z,15.30
2017-12-23T02:35:43.180Z,15.95
2017-12-23T02:38:11.291Z,15.60
2017-12-23T02:40:39.499Z,17.90
2017-12-23T02:43:08.416Z,15.70
2017-12-23T02:45:37.306Z,12.70
2017-12-23T02:48:05.480Z,13.30
2017-12-23T02:50:33.651Z,12.70
2017-12-23T02:53:02.542Z,15.70
2017-12-23T02:55:30.716Z,12.70
2017-12-23T02:57:59.606Z,15.43
2017-12-23T03:00:27.722Z,17.15
2017-12-23T03:02:55.952Z,11.98
2017-12-23T03:07:59.319Z,13.75
2017-12-23T03:10:27.450Z,15.57
2017-12-23T03:12:55.606Z,18.02
2017-12-23T03:15:24.599Z,15.90
2017-12-23T03:17:53.488Z,15.85
2017-12-23T03:20:22.368Z,19.55
2017-12-23T03:22:50.493Z,16.90
2017-12-23T03:25:18.632Z,17.17
2017-12-23T03:27:46.799Z,16.77
2017-12-23T03:30:15.792Z,20.85
2017-12-23T03:32:43.963Z,19.27
2017-12-23T03:35:12.849Z,19.92
2017-12-23T03:37:41.747Z,18.33
2017-12-23T03:40:09.858Z,19.00
2017-12-23T03:42:37.990Z,18.50
2017-12-23T03:45:06.158Z,17.45
2017-12-23T03:47:35.046Z,19.20
2017-12-23T03:50:03.150Z,18.83
2017-12-23T03:52:32.108Z,18.15
2017-12-23T03:55:00.993Z,18.20
2017-12-23T03:57:29.100Z,18.08
2017-12-23T03:59:58.008Z,16.27
2017-12-23T04:02:26.129Z,19.57
2017-12-23T04:04:54.347Z,17.37
2017-12-23T04:07:22.469Z,17.67
2017-12-23T04:09:50.645Z,16.13
2017-12-23T04:12:19.499Z,17.30
2017-12-23T04:14:48.423Z,17.60
2017-12-23T04:17:16.538Z,15.88
2017-12-23T04:19:44.675Z,18.52
2017-12-23T04:22:12.845Z,16.70
2017-12-23T04:24:41.013Z,16.27
2017-12-23T04:27:10.002Z,19.80
2017-12-23T04:29:38.910Z,16.00
2017-12-23T04:32:07.035Z,16.70
2017-12-23T04:34:35.956Z,18.62
2017-12-23T04:37:04.128Z,17.95
2017-12-23T04:39:33.029Z,16.52
2017-12-23T04:42:01.132Z,19.62
2017-12-23T04:44:29.268Z,20.15
2017-12-23T04:46:57.534Z,21.12
2017-12-23T04:49:26.427Z,17.75
2017-12-23T04:51:54.594Z,18.67
2017-12-23T04:54:23.484Z,17.35
2017-12-23T04:56:51.597Z,24.02
2017-12-23T04:59:19.829Z,21.75
2017-12-23T05:01:48.721Z,16.50
2017-12-23T05:04:16.837Z,19.50
2017-12-23T05:06:45.139Z,20.25
2017-12-23T05:09:13.339Z,17.10
2017-12-23T05:11:42.214Z,18.95
2017-12-23T05:14:10.338Z,19.33
2017-12-23T05:16:38.573Z,16.98
2017-12-23T05:19:07.462Z,19.30
2017-12-23T05:21:36.336Z,19.65
2017-12-23T05:24:04.525Z,16.75
2017-12-23T05:26:33.415Z,18.40
2017-12-23T05:29:01.586Z,18.55
2017-12-23T05:31:29.693Z,16.00
2017-12-23T05:33:57.818Z,16.00
2017-12-23T05:36:26.001Z,16.42
2017-12-23T05:38:54.865Z,17.27
2017-12-23T05:41:23.769Z,16.83
2017-12-23T05:43:51.953Z,15.18
2017-12-23T05:46:20.839Z,15.30
2017-12-23T05:48:49.014Z,15.35
2017-12-23T05:51:17.878Z,14.93
2017-12-23T05:53:46.792Z,13.35
2017-12-23T05:56:14.904Z,15.07
2017-12-23T05:58:43.041Z,14.93
2017-12-23T06:01:11.159Z,14.50
2017-12-23T06:03:39.315Z,15.90
2017-12-23T06:06:07.454Z,13.85
2017-12-23T06:08:35.579Z,13.85
2017-12-23T06:11:03.763Z,13.43
2017-12-23T06:13:32.668Z,15.23
2017-12-23T06:16:01.578Z,14.70
2017-12-23T06:18:29.692Z,13.98
2017-12-23T06:20:57.820Z,14.02
2017-12-23T06:23:25.994Z,16.25
2017-12-23T06:25:54.864Z,13.20
2017-12-23T06:28:23.023Z,13.35
2017-12-23T06:30:51.938Z,12.93
2017-12-23T06:33:20.125Z,11.85
2017-12-23T06:35:48.298Z,14.87
2017-12-23T06:38:16.469Z,14.27
2017-12-23T06:40:44.569Z,15.07
2017-12-23T06:43:12.716Z,12.77
2017-12-23T06:45:40.833Z,16.77
2017-12-23T06:48:09.059Z,16.17
2017-12-23T06:50:37.158Z,16.77
2017-12-23T06:53:05.301Z,12.55
2017-12-23T06:55:34.173Z,15.40
2017-12-23T06:58:02.306Z,15.00
2017-12-23T07:00:30.438Z,13.57
2017-12-23T07:02:58.555Z,15.40
2017-12-23T07:05:27.501Z,14.65
2017-12-23T07:07:56.389Z,13.60
2017-12-23T07:10:24.483Z,15.53
2017-12-23T07:12:53.457Z,14.85
2017-12-23T07:15:21.628Z,17.75
2017-12-23T07:17:49.795Z,16.23
2017-12-23T07:20:17.969Z,15.45
2017-12-23T07:22:46.869Z,17.90
2017-12-23T07:25:14.990Z,17.73
2017-12-23T07:27:43.206Z,16.95
2017-12-23T07:30:12.086Z,16.37
2017-12-23T07:32:40.266Z,18.62
2017-12-23T07:35:09.169Z,15.50
2017-12-23T07:37:37.346Z,16.52
2017-12-23T07:40:05.465Z,14.30
2017-12-23T07:42:33.590Z,17.75
2017-12-23T07:45:01.752Z,15.10
2017-12-23T07:47:29.930Z,13.98
2017-12-23T07:49:58.098Z,14.02
2017-12-23T07:52:26.993Z,15.55
2017-12-23T07:54:55.879Z,12.13
2017-12-23T07:57:24.159Z,14.50
2017-12-23T07:59:53.023Z,14.07
2017-12-23T08:02:21.913Z,13.57
2017-12-23T08:04:50.051Z,17.00
2017-12-23T08:07:18.284Z,13.60
2017-12-23T08:09:47.151Z,15.10
2017-12-23T08:12:15.380Z,14.63
2017-12-23T08:14:43.463Z,14.73
2017-12-23T08:17:11.690Z,15.50
2017-12-23T08:19:40.558Z,15.80
2017-12-23T08:22:09.430Z,17.35
2017-12-23T08:24:38.339Z,13.70
2017-12-23T08:27:07.252Z,15.88
2017-12-23T08:29:36.139Z,14.57
2017-12-23T08:32:04.252Z,14.32
2017-12-23T08:34:32.388Z,15.40
2017-12-23T08:37:00.559Z,15.27
2017-12-23T08:39:29.434Z,15.40
2017-12-23T08:41:57.622Z,12.85
2017-12-23T08:44:26.499Z,14.90
2017-12-23T08:46:55.381Z,16.98
2017-12-23T08:49:23.578Z,14.00
2017-12-23T08:51:51.747Z,13.62
2017-12-23T08:54:20.639Z,13.20
2017-12-23T08:56:48.754Z,13.80
2017-12-23T08:59:16.915Z,14.13
2017-12-23T09:01:45.048Z,11.20
2017-12-23T09:04:13.228Z,9.57
2017-12-23T09:06:42.106Z,11.27
2017-12-23T09:09:10.290Z,12.20
2017-12-23T09:11:39.167Z,12.10
2017-12-23T09:14:07.354Z,14.45
2017-12-23T09:16:36.245Z,11.32
2017-12-23T09:19:04.417Z,10.98
2017-12-23T09:21:33.408Z,13.70
2017-12-23T09:24:02.269Z,12.52
2017-12-23T09:26:31.188Z,12.90
2017-12-23T09:29:00.133Z,12.15
2017-12-23T09:31:28.195Z,12.00
2017-12-23T09:33:56.330Z,12.25
2017-12-23T09:36:24.496Z,12.57
2017-12-23T09:38:53.386Z,11.12
2017-12-23T09:41:21.559Z,12.13
2017-12-23T09:43:50.447Z,12.50
2017-12-23T09:46:19.342Z,14.73
2017-12-23T09:48:47.510Z,12.25
2017-12-23T09:51:15.682Z,13.45
2017-12-23T09:53:44.536Z,13.32
2017-12-23T09:56:13.422Z,10.33
2017-12-23T09:58:42.351Z,13.77
2017-12-23T10:01:11.348Z,12.23
2017-12-23T10:03:40.237Z,13.32
2017-12-23T10:06:08.412Z,10.45
2017-12-23T10:08:37.300Z,10.27
2017-12-23T10:11:05.419Z,9.00
2017-12-23T10:13:33.548Z,11.45
2017-12-23T10:16:01.716Z,8.38
2017-12-23T10:18:29.828Z,9.27
2017-12-23T10:20:58.062Z,9.02
2017-12-23T10:23:26.912Z,10.55
2017-12-23T10:25:55.797Z,10.20
2017-12-23T10:28:24.016Z,10.40
2017-12-23T10:30:52.903Z,9.23
2017-12-23T10:33:21.080Z,11.88
2017-12-23T10:35:49.930Z,11.57
2017-12-23T10:38:18.810Z,11.30
2017-12-23T10:40:47.039Z,10.27
2017-12-23T10:43:15.203Z,10.80
2017-12-23T10:45:44.072Z,11.15
2017-12-23T10:48:12.981Z,8.63
2017-12-23T10:50:41.978Z,9.93
2017-12-23T10:53:10.864Z,10.07
2017-12-23T10:55:39.750Z,10.40
2017-12-23T10:58:07.875Z,9.48
2017-12-23T11:00:36.011Z,9.83
2017-12-23T11:03:04.146Z,11.10
2017-12-23T11:05:33.057Z,9.52
2017-12-23T11:08:01.236Z,8.65
2017-12-23T11:10:29.326Z,9.10
2017-12-23T11:12:57.478Z,8.88
2017-12-23T11:15:26.373Z,9.40
2017-12-23T11:17:54.514Z,7.70
2017-12-23T11:20:22.624Z,8.48
2017-12-23T11:22:50.743Z,9.63
2017-12-23T11:25:19.636Z,8.80
2017-12-23T11:27:48.626Z,7.93
2017-12-23T11:30:16.758Z,8.88
2017-12-23T11:32:44.889Z,7.65
2017-12-23T11:35:13.800Z,8.35
2017-12-23T11:37:42.689Z,8.13
2017-12-23T11:40:11.563Z,7.80
2017-12-23T11:42:39.703Z,8.68
2017-12-23T11:45:07.842Z,7.40
2017-12-23T11:47:36.004Z,6.87
2017-12-23T11:50:04.210Z,8.80
2017-12-23T11:52:32.445Z,6.65
2017-12-23T11:55:01.296Z,8.77
2017-12-23T11:57:30.185Z,8.85
2017-12-23T11:59:58.397Z,6.35
2017-12-23T12:02:27.286Z,6.63
2017-12-23T12:04:55.397Z,6.72
2017-12-23T12:07:23.512Z,5.72
2017-12-23T12:09:52.402Z,6.10
2017-12-23T12:12:21.415Z,5.15
2017-12-23T12:14:50.301Z,5.00
2017-12-23T12:17:19.191Z,5.87
2017-12-23T12:19:48.081Z,6.22
2017-12-23T12:22:16.971Z,5.85
2017-12-23T12:24:46.068Z,6.05
2017-12-23T12:27:14.240Z,6.03
2017-12-23T12:29:42.411Z,4.97
2017-12-23T12:32:10.584Z,6.32
2017-12-23T12:34:39.578Z,5.78
2017-12-23T12:37:08.436Z,5.15
2017-12-23T12:39:36.551Z,5.40
2017-12-23T12:42:04.710Z,5.90
2017-12-23T12:44:33.703Z,6.00
2017-12-23T12:47:03.206Z,4.65
2017-12-23T12:49:31.386Z,4.95
2017-12-23T12:51:59.859Z,5.22
2017-12-23T12:54:28.047Z,4.95
2017-12-23T12:56:56.208Z,5.22
2017-12-23T12:59:24.318Z,4.95
2017-12-23T13:01:52.610Z,6.23
2017-12-23T13:04:20.728Z,5.70
2017-12-23T13:06:48.833Z,6.22
2017-12-23T13:09:16.966Z,5.28
2017-12-23T13:11:45.118Z,4.78
2017-12-23T13:14:13.991Z,5.05
2017-12-23T13:16:42.203Z,5.50
2017-12-23T13:19:11.071Z,4.87
2017-12-23T13:21:40.046Z,4.35
2017-12-23T13:24:08.939Z,6.62
2017-12-23T13:26:37.863Z,4.93
2017-12-23T13:29:06.855Z,5.90
2017-12-23T13:31:35.738Z,7.07
2017-12-23T13:34:03.922Z,6.18
2017-12-23T13:36:32.012Z,4.95
2017-12-23T13:39:00.163Z,4.82
2017-12-23T13:41:28.271Z,5.25
2017-12-23T13:43:56.505Z,5.45
2017-12-23T13:46:25.397Z,4.97
2017-12-23T13:48:54.274Z,5.15
2017-12-23T13:51:22.398Z,5.37
2017-12-23T13:53:50.533Z,8.95
2017-12-23T13:56:19.424Z,4.83
2017-12-23T13:58:47.594Z,4.87
2017-12-23T14:01:16.484Z,7.20
2017-12-23T14:03:44.594Z,4.97
2017-12-23T14:06:12.722Z,4.55
2017-12-23T14:08:40.899Z,4.40
2017-12-23T14:11:09.747Z,5.07
2017-12-23T14:13:38.678Z,10.73
2017-12-23T14:16:06.852Z,7.65
2017-12-23T14:18:35.721Z,5.12
2017-12-23T14:21:04.631Z,5.37
2017-12-23T14:23:32.805Z,6.40
2017-12-23T14:26:01.795Z,6.10
2017-12-23T14:28:30.688Z,6.10
2017-12-23T14:30:58.792Z,7.80
2017-12-23T14:33:26.932Z,5.78
2017-12-23T14:35:55.106Z,6.18
2017-12-23T14:38:23.996Z,5.32
2017-12-23T14:40:52.857Z,6.37
2017-12-23T14:43:21.776Z,5.28
2017-12-23T14:45:49.946Z,6.95
2017-12-23T14:48:18.941Z,6.55
2017-12-23T14:50:47.861Z,6.80
2017-12-23T14:53:16.107Z,6.15
2017-12-23T14:55:44.999Z,5.65
2017-12-23T14:58:13.248Z,5.28
2017-12-23T15:00:41.283Z,5.93
2017-12-23T15:03:09.518Z,4.75
2017-12-23T15:05:37.687Z,5.00
2017-12-23T15:08:06.586Z,5.20
2017-12-23T15:10:34.753Z,4.10
2017-12-23T15:13:03.740Z,4.10
2017-12-23T15:15:32.025Z,5.22
2017-12-23T15:18:00.118Z,11.98
2017-12-23T15:20:28.260Z,4.55
2017-12-23T15:22:56.383Z,4.25
2017-12-23T15:25:24.610Z,5.83
2017-12-23T15:27:52.790Z,4.70
2017-12-23T15:30:20.952Z,5.30
2017-12-23T15:32:49.934Z,4.70
2017-12-23T15:35:18.092Z,6.37
2017-12-23T15:37:47.003Z,4.50
2017-12-23T15:40:15.887Z,4.57
2017-12-23T15:42:44.013Z,5.70
2017-12-23T15:45:12.118Z,13.23
2017-12-23T15:47:41.024Z,6.70
2017-12-23T15:50:09.204Z,5.50
2017-12-23T15:52:37.378Z,4.85
2017-12-23T15:55:05.550Z,4.63
2017-12-23T15:57:33.722Z,5.72
2017-12-23T16:00:02.614Z,6.22
2017-12-23T16:02:30.759Z,5.82
2017-12-23T16:04:59.674Z,4.97
2017-12-23T16:07:28.564Z,7.87
2017-12-23T16:09:57.429Z,5.53
2017-12-23T16:12:25.628Z,11.55
2017-12-23T16:14:53.744Z,11.20
2017-12-23T16:17:21.971Z,7.18
2017-12-23T16:19:50.963Z,12.43
2017-12-23T16:22:19.135Z,8.85
2017-12-23T16:24:48.017Z,7.20
2017-12-23T16:27:16.299Z,7.93
2017-12-23T16:29:44.550Z,7.65
2017-12-23T16:32:13.468Z,8.65
2017-12-23T16:34:41.581Z,8.57
2017-12-23T16:37:09.715Z,10.30
2017-12-23T16:39:37.956Z,7.47
2017-12-23T16:42:06.845Z,8.27
2017-12-23T16:44:35.720Z,7.68
2017-12-23T16:47:03.875Z,8.63
2017-12-23T16:49:32.006Z,8.10
2017-12-23T16:52:00.109Z,8.23
2017-12-23T16:54:28.263Z,8.85
2017-12-23T16:56:56.388Z,8.63
2017-12-23T16:59:24.598Z,7.95
2017-12-23T17:01:53.489Z,8.70
2017-12-23T17:04:22.382Z,8.30
2017-12-23T17:06:50.551Z,10.02
2017-12-23T17:09:19.434Z,9.32
2017-12-23T17:11:47.615Z,10.27
2017-12-23T17:14:16.506Z,14.20
2017-12-23T17:16:44.678Z,12.23
2017-12-23T17:19:13.621Z,12.00
2017-12-23T17:21:41.833Z,9.75
2017-12-23T17:24:09.965Z,10.68
2017-12-23T17:26:38.194Z,12.10
2017-12-23T17:29:19.062Z,14.75
2017-12-23T17:31:47.196Z,10.75
2017-12-23T17:34:15.408Z,11.73
2017-12-23T17:36:44.401Z,12.75
2017-12-23T17:39:13.331Z,14.35
2017-12-23T17:41:42.991Z,10.33
2017-12-23T17:44:11.998Z,8.45
2017-12-23T17:46:40.165Z,9.88
2017-12-23T17:49:09.054Z,10.77
2017-12-23T17:51:37.214Z,10.07
2017-12-23T17:54:05.355Z,13.70
2017-12-23T17:56:34.274Z,10.13
2017-12-23T17:59:02.465Z,9.90
2017-12-23T18:01:30.584Z,9.70
2017-12-23T18:03:58.723Z,9.85
2017-12-23T18:06:26.824Z,9.40
2017-12-23T18:08:55.066Z,8.75
2017-12-23T18:11:23.224Z,10.17
2017-12-23T18:13:53.350Z,10.75
2017-12-23T18:16:21.453Z,9.45
2017-12-23T18:18:49.839Z,9.98
2017-12-23T18:21:18.883Z,8.80
2017-12-23T18:23:47.269Z,9.00
2017-12-23T18:26:16.171Z,9.97
2017-12-23T18:28:44.274Z,11.68
2017-12-23T18:31:12.611Z,9.82
2017-12-23T18:33:40.871Z,11.88
2017-12-23T18:36:09.007Z,10.00
2017-12-23T18:38:37.139Z,10.38
2017-12-23T18:41:05.298Z,12.10
2017-12-23T18:43:34.192Z,12.15
2017-12-23T18:46:03.287Z,11.52
2017-12-23T18:48:31.650Z,13.68
2017-12-23T18:50:59.789Z,14.73
2017-12-23T18:53:27.921Z,11.80
2017-12-23T18:55:56.036Z,11.60
2017-12-23T18:58:24.970Z,10.48
2017-12-23T19:00:53.837Z,10.55
2017-12-23T19:03:22.960Z,12.52
2017-12-23T19:05:51.440Z,10.30
2017-12-23T19:08:19.573Z,13.23
2017-12-23T19:10:48.508Z,13.75
2017-12-23T19:13:17.119Z,12.57
2017-12-23T19:15:51.024Z,10.55
2017-12-23T19:18:20.798Z,11.27
2017-12-23T19:20:48.900Z,12.07
2017-12-23T19:23:17.346Z,10.30
2017-12-23T19:25:46.447Z,10.20
2017-12-23T19:28:14.615Z,8.98
2017-12-23T19:30:43.503Z,10.43
2017-12-23T19:33:11.629Z,12.30
2017-12-23T19:35:39.850Z,10.38
2017-12-23T19:38:08.740Z,10.27
2017-12-23T19:40:37.152Z,8.03
2017-12-23T19:43:05.292Z,9.65
2017-12-23T19:45:33.463Z,10.35
2017-12-23T19:48:01.597Z,10.75
2017-12-23T19:50:30.023Z,10.05
2017-12-23T19:52:58.698Z,9.93
2017-12-23T19:55:27.898Z,8.33
2017-12-23T19:57:56.330Z,9.35
2017-12-23T20:00:25.024Z,9.90
2017-12-23T20:02:54.365Z,12.05
2017-12-23T20:05:22.536Z,12.45
2017-12-23T20:07:51.421Z,13.57
2017-12-23T20:10:20.353Z,13.83
2017-12-23T20:12:48.589Z,13.48
2017-12-23T20:15:17.482Z,14.45
2017-12-23T20:17:45.625Z,14.73
2017-12-23T20:20:14.530Z,15.25
2017-12-23T20:22:42.719Z,12.95
2017-12-23T20:25:11.580Z,15.13
2017-12-23T20:27:40.492Z,15.00
2017-12-23T20:30:08.670Z,15.15
2017-12-23T20:32:37.547Z,12.65
2017-12-23T20:35:05.734Z,15.63
2017-12-23T20:37:33.903Z,12.80
2017-12-23T20:40:02.786Z,16.57
2017-12-23T20:42:30.965Z,16.67
2017-12-23T20:44:59.857Z,16.17
2017-12-23T20:47:28.029Z,19.35
2017-12-23T20:49:56.202Z,16.60
2017-12-23T20:52:25.092Z,15.25
2017-12-23T20:54:53.969Z,14.40
2017-12-23T20:57:22.163Z,17.15
2017-12-23T20:59:50.430Z,19.40
2017-12-23T21:02:19.298Z,15.27
2017-12-23T21:04:47.459Z,15.60
2017-12-23T21:07:16.384Z,17.58
2017-12-23T21:09:45.273Z,16.30
2017-12-23T21:12:14.281Z,15.40
2017-12-23T21:14:42.470Z,15.60
2017-12-23T21:17:10.711Z,19.85
2017-12-23T21:19:39.602Z,17.10
2017-12-23T21:22:07.760Z,19.37
2017-12-23T21:24:36.663Z,15.57
2017-12-23T21:27:04.840Z,17.90
2017-12-23T21:29:32.992Z,16.60
2017-12-23T21:32:01.134Z,16.45
2017-12-23T21:34:29.251Z,17.75
2017-12-23T21:36:57.438Z,17.45
2017-12-23T21:39:25.566Z,15.10
2017-12-23T21:41:53.774Z,17.80
2017-12-23T21:44:23.003Z,17.23
2017-12-23T21:46:51.147Z,16.95
2017-12-23T21:49:19.257Z,15.65
2017-12-23T21:51:48.889Z,17.55
2017-12-23T21:54:18.737Z,16.02
2017-12-23T21:56:47.635Z,19.55
2017-12-23T21:59:15.803Z,15.98
2017-12-23T22:01:43.912Z,17.37
2017-12-23T22:04:13.541Z,15.98
2017-12-23T22:06:42.544Z,16.80
2017-12-23T22:09:11.425Z,16.48
2017-12-23T22:11:40.346Z,16.80
2017-12-23T22:14:08.463Z,18.10
2017-12-23T22:16:36.696Z,17.48
2017-12-23T22:19:05.560Z,17.30
2017-12-23T22:21:34.476Z,16.10
2017-12-23T22:24:02.595Z,16.55
2017-12-23T22:26:30.823Z,16.43
2017-12-23T22:28:59.715Z,19.20
2017-12-23T22:31:27.887Z,16.00
2017-12-23T22:33:56.800Z,14.87
2017-12-23T22:36:24.946Z,18.77
2017-12-23T22:38:53.835Z,17.30
2017-12-23T22:41:22.720Z,15.65
2017-12-23T22:43:51.003Z,18.45
2017-12-23T22:46:19.995Z,18.77
2017-12-23T22:48:48.986Z,13.45
2017-12-23T22:51:17.142Z,15.00
2017-12-23T22:53:45.340Z,14.18
2017-12-23T22:56:14.438Z,15.60
2017-12-23T22:58:42.538Z,13.93
2017-12-23T23:01:10.673Z,14.00
2017-12-23T23:03:38.848Z,15.18
2017-12-23T23:06:07.738Z,14.57
2017-12-23T23:08:36.625Z,13.75
2017-12-23T23:11:05.476Z,14.68
2017-12-23T23:13:34.386Z,17.27
2017-12-23T23:16:02.590Z,14.30
2017-12-23T23:18:30.753Z,14.95
2017-12-23T23:20:59.700Z,13.93
2017-12-23T23:23:27.816Z,15.40
2017-12-23T23:25:55.987Z,17.27
2017-12-23T23:28:24.876Z,15.52
2017-12-23T23:30:53.156Z,14.20
2017-12-23T23:33:21.313Z,14.48
2017-12-23T23:35:49.496Z,15.40
2017-12-23T23:38:18.388Z,15.88
2017-12-23T23:40:46.559Z,15.70
2017-12-23T23:43:15.426Z,17.77
2017-12-23T23:45:44.344Z,14.55
2017-12-23T23:48:12.866Z,13.05
2017-12-23T23:50:41.367Z,14.32
2017-12-23T23:53:10.292Z,12.45
2017-12-23T23:55:39.260Z,13.90
2017-12-23T23:58:08.160Z,13.68
